Time;durP1;ratioP1;P1;durP2;ratioP2;P2;SDS_P1;SDS_P2;PMS_P1;PMS_P2;Temp;Humidity;BMP_temperature;BMP_pressure;BME280_temperature;BME280_humidity;BME280_pressure;Samples;Min_cycle;Max_cycle;Signal;HPM_P1;HPM_P2
2023/03/05 00:00:35;;;;;;;;;;;5.10;99.90;;;;;;5058170;28;19920;-60
2023/03/05 00:03:00;;;;;;;;;;;5.10;99.90;;;;;;5050561;28;19970;-59
2023/03/05 00:05:26;;;;;;;;;;;5.10;99.90;;;;;;5053586;28;19917;-61
2023/03/05 00:07:51;;;;;;;;;;;5.10;99.90;;;;;;5046782;28;20439;-60
2023/03/05 00:10:17;;;;;;;;;;;5.10;99.90;;;;;;5051753;28;19999;-60
2023/03/05 00:12:42;;;;;;;;;;;5.10;99.90;;;;;;5051494;28;19919;-61
2023/03/05 00:15:08;;;;;;;;;;;5.10;99.90;;;;;;5051450;28;19916;-60
2023/03/05 00:17:33;;;;;;;;;;;5.10;99.90;;;;;;5055669;28;20373;-60
2023/03/05 00:19:59;;;;;;;;;;;5.00;99.90;;;;;;5047348;28;20376;-60
2023/03/05 00:22:24;;;;;;;;;;;5.10;99.90;;;;;;5053306;28;19959;-60
2023/03/05 00:24:50;;;;;;;;;;;5.10;99.90;;;;;;5041371;28;19913;-61
2023/03/05 00:27:16;;;;;;;;;;;5.10;99.90;;;;;;5044763;28;19921;-60
2023/03/05 00:29:41;;;;;;;;;;;5.10;99.90;;;;;;5045228;28;20391;-61
2023/03/05 00:32:07;;;;;;;;;;;5.10;99.90;;;;;;5050393;28;20029;-61
2023/03/05 00:34:32;;;;;;;;;;;5.10;99.90;;;;;;5052341;28;20003;-61
2023/03/05 00:36:58;;;;;;;;;;;5.00;99.90;;;;;;5050233;28;20465;-61
2023/03/05 00:39:23;;;;;;;;;;;5.10;99.90;;;;;;5051943;28;19920;-61
2023/03/05 00:41:49;;;;;;;;;;;5.10;99.90;;;;;;5049615;28;19913;-60
2023/03/05 00:44:15;;;;;;;;;;;5.10;99.90;;;;;;5050890;28;20469;-61
2023/03/05 00:46:40;;;;;;;;;;;5.10;99.90;;;;;;5050099;28;20379;-61
2023/03/05 00:49:06;;;;;;;;;;;5.10;99.90;;;;;;5047353;28;19912;-61
2023/03/05 00:51:31;;;;;;;;;;;5.10;99.90;;;;;;5053246;28;19917;-61
2023/03/05 00:53:57;;;;;;;;;;;5.10;99.90;;;;;;5050528;28;19917;-61
2023/03/05 00:56:22;;;;;;;;;;;5.10;99.90;;;;;;5052166;28;19913;-59
2023/03/05 00:58:48;;;;;;;;;;;5.10;99.90;;;;;;5051073;28;19955;-59
2023/03/05 01:01:14;;;;;;;;;;;5.10;99.90;;;;;;5048418;28;19982;-61
2023/03/05 01:03:39;;;;;;;;;;;5.00;99.90;;;;;;5052427;28;19912;-61
2023/03/05 01:06:06;;;;;;;;;;;5.10;99.90;;;;;;5050375;28;19916;-61
2023/03/05 01:08:32;;;;;;;;;;;5.10;99.90;;;;;;5051809;28;19919;-60
2023/03/05 01:10:58;;;;;;;;;;;5.10;99.90;;;;;;5047626;28;19913;-59
2023/03/05 01:13:23;;;;;;;;;;;5.00;99.90;;;;;;5044531;28;19974;-60
2023/03/05 01:15:49;;;;;;;;;;;5.10;99.90;;;;;;5052064;28;19917;-60
2023/03/05 01:18:15;;;;;;;;;;;5.00;99.90;;;;;;5041349;28;20327;-61
2023/03/05 01:20:41;;;;;;;;;;;5.00;99.90;;;;;;5045109;28;19940;-60
2023/03/05 01:23:06;;;;;;;;;;;5.00;99.90;;;;;;5048400;28;19948;-60
2023/03/05 01:25:32;;;;;;;;;;;5.00;99.90;;;;;;5052444;28;19919;-60
2023/03/05 01:27:57;;;;;;;;;;;4.90;99.90;;;;;;5043284;28;19925;-59
2023/03/05 01:30:23;;;;;;;;;;;4.90;99.90;;;;;;5047890;28;19964;-60
2023/03/05 01:32:48;;;;;;;;;;;5.00;99.90;;;;;;5051639;28;19936;-61
2023/03/05 01:35:16;;;;;;;;;;;4.90;99.90;;;;;;5050290;28;19913;-61
2023/03/05 01:37:42;;;;;;;;;;;4.90;99.90;;;;;;5051960;28;20023;-60
2023/03/05 01:40:09;;;;;;;;;;;4.90;99.90;;;;;;5050022;28;20030;-60
2023/03/05 01:42:34;;;;;;;;;;;4.90;99.90;;;;;;5041602;28;20348;-60
2023/03/05 01:45:01;;;;;;;;;;;4.90;99.90;;;;;;5049938;28;20008;-60
2023/03/05 01:47:26;;;;;;;;;;;4.90;99.90;;;;;;5051525;28;19920;-60
2023/03/05 01:49:53;;;;;;;;;;;4.90;99.90;;;;;;5051621;28;19913;-60
2023/03/05 01:52:20;;;;;;;;;;;4.90;99.90;;;;;;5049235;28;19913;-60
2023/03/05 01:54:46;;;;;;;;;;;4.80;99.90;;;;;;5051773;28;19936;-60
2023/03/05 01:57:21;;;;;;;;;;;4.80;99.90;;;;;;5047255;28;20373;-60
2023/03/05 01:59:48;;;;;;;;;;;4.80;99.90;;;;;;5051771;28;19921;-60
2023/03/05 02:02:15;;;;;;;;;;;4.80;99.90;;;;;;5042081;28;19917;-60
2023/03/05 02:04:43;;;;;;;;;;;4.80;99.90;;;;;;5051685;28;19916;-60
2023/03/05 02:07:09;;;;;;;;;;;4.80;99.90;;;;;;5049679;28;20387;-60
2023/03/05 02:09:38;;;;;;;;;;;4.70;99.90;;;;;;5050859;28;19913;-60
2023/03/05 02:12:04;;;;;;;;;;;4.70;99.90;;;;;;5036086;28;19914;-60
2023/03/05 02:14:30;;;;;;;;;;;4.70;99.90;;;;;;5050861;28;19913;-59
2023/03/05 02:16:55;;;;;;;;;;;4.70;99.90;;;;;;5042132;28;19913;-60
2023/03/05 02:19:21;;;;;;;;;;;4.70;99.90;;;;;;5050911;28;20276;-60
2023/03/05 02:21:48;;;;;;;;;;;4.70;99.90;;;;;;5050014;28;19916;-61
2023/03/05 02:24:14;;;;;;;;;;;4.70;99.90;;;;;;5044900;28;19920;-59
2023/03/05 02:26:41;;;;;;;;;;;4.70;99.90;;;;;;5046380;28;20052;-59
2023/03/05 02:29:08;;;;;;;;;;;4.70;99.90;;;;;;5043603;28;20016;-61
2023/03/05 02:31:33;;;;;;;;;;;4.70;99.90;;;;;;5047765;28;20030;-59
2023/03/05 02:33:59;;;;;;;;;;;4.60;99.90;;;;;;5049291;28;20407;-59
2023/03/05 02:36:24;;;;;;;;;;;4.60;99.90;;;;;;5050902;28;19917;-59
2023/03/05 02:38:51;;;;;;;;;;;4.60;99.90;;;;;;5050279;28;19913;-60
2023/03/05 02:41:17;;;;;;;;;;;4.60;99.90;;;;;;5044941;28;19935;-60
2023/03/05 02:43:42;;;;;;;;;;;4.50;99.90;;;;;;5046049;28;19913;-60
2023/03/05 02:46:08;;;;;;;;;;;4.50;99.90;;;;;;5047845;28;19920;-60
2023/03/05 02:48:33;;;;;;;;;;;4.50;99.90;;;;;;5050458;28;20003;-60
2023/03/05 02:51:00;;;;;;;;;;;4.50;99.90;;;;;;5045436;28;20004;-60
2023/03/05 02:53:26;;;;;;;;;;;4.50;99.90;;;;;;5049463;28;19928;-60
2023/03/05 02:55:51;;;;;;;;;;;4.50;99.90;;;;;;5049301;28;19913;-60
2023/03/05 02:58:17;;;;;;;;;;;4.50;99.90;;;;;;5048405;28;19912;-60
2023/03/05 03:00:43;;;;;;;;;;;4.50;99.90;;;;;;5049926;28;20398;-60
2023/03/05 03:03:08;;;;;;;;;;;4.50;99.90;;;;;;5046423;28;20003;-59
2023/03/05 03:05:34;;;;;;;;;;;4.50;99.90;;;;;;5048915;28;19919;-60
2023/03/05 03:08:00;;;;;;;;;;;4.50;99.90;;;;;;5049181;28;20386;-61
2023/03/05 03:10:25;;;;;;;;;;;4.40;99.90;;;;;;5048515;28;19966;-58
2023/03/05 03:12:51;;;;;;;;;;;4.40;99.90;;;;;;5043199;28;19920;-59
2023/03/05 03:15:17;;;;;;;;;;;4.40;99.90;;;;;;5044732;28;19924;-60
2023/03/05 03:17:43;;;;;;;;;;;4.40;99.90;;;;;;5044863;28;20374;-60
2023/03/05 03:20:10;;;;;;;;;;;4.40;99.90;;;;;;5048304;28;19920;-60
2023/03/05 03:22:36;;;;;;;;;;;4.40;99.90;;;;;;5050142;28;19967;-59
2023/03/05 03:25:02;;;;;;;;;;;4.30;99.90;;;;;;5047948;28;19913;-59
2023/03/05 03:27:27;;;;;;;;;;;4.30;99.90;;;;;;5044534;28;19921;-60
2023/03/05 03:29:53;;;;;;;;;;;4.30;99.90;;;;;;5046596;28;20016;-59
2023/03/05 03:32:18;;;;;;;;;;;4.30;99.90;;;;;;5048333;28;19960;-59
2023/03/05 03:34:44;;;;;;;;;;;4.30;99.90;;;;;;5049298;28;19920;-59
2023/03/05 03:37:09;;;;;;;;;;;4.30;99.90;;;;;;5048070;28;19936;-61
2023/03/05 03:39:35;;;;;;;;;;;4.30;99.90;;;;;;5048725;28;19917;-61
2023/03/05 03:42:00;;;;;;;;;;;4.30;99.90;;;;;;5048822;28;19967;-61
2023/03/05 03:44:26;;;;;;;;;;;4.30;99.90;;;;;;5049397;28;20279;-59
2023/03/05 03:46:53;;;;;;;;;;;4.30;99.90;;;;;;5048831;28;19935;-59
2023/03/05 03:49:23;;;;;;;;;;;4.30;99.90;;;;;;5047831;28;20416;-59
2023/03/05 03:51:49;;;;;;;;;;;4.20;99.90;;;;;;5049407;28;19916;-59
2023/03/05 03:54:15;;;;;;;;;;;4.30;99.90;;;;;;5047097;28;19919;-59
2023/03/05 03:56:41;;;;;;;;;;;4.30;99.90;;;;;;5048096;28;19964;-61
2023/03/05 03:59:06;;;;;;;;;;;4.30;99.90;;;;;;5048062;28;19917;-60
2023/03/05 04:01:32;;;;;;;;;;;4.20;99.90;;;;;;5048725;28;19919;-60
2023/03/05 04:03:57;;;;;;;;;;;4.20;99.90;;;;;;5043230;28;19917;-60
2023/03/05 04:06:23;;;;;;;;;;;4.20;99.90;;;;;;5049406;28;19913;-60
2023/03/05 04:08:48;;;;;;;;;;;4.20;99.90;;;;;;5046926;28;19913;-60
2023/03/05 04:11:14;;;;;;;;;;;4.20;99.90;;;;;;5047292;28;19920;-60
2023/03/05 04:13:40;;;;;;;;;;;4.20;99.90;;;;;;5046928;28;19913;-60
2023/03/05 04:16:06;;;;;;;;;;;4.20;99.90;;;;;;5044346;28;20363;-60
2023/03/05 04:18:32;;;;;;;;;;;4.20;99.90;;;;;;5044797;28;19925;-60
2023/03/05 04:20:57;;;;;;;;;;;4.20;99.90;;;;;;5047902;28;19940;-60
2023/03/05 04:23:23;;;;;;;;;;;4.20;99.90;;;;;;5053182;28;20279;-59
2023/03/05 04:25:48;;;;;;;;;;;4.10;99.90;;;;;;5050705;28;19967;-60
2023/03/05 04:28:14;;;;;;;;;;;4.10;99.90;;;;;;5050574;28;19928;-60
2023/03/05 04:30:39;;;;;;;;;;;4.10;99.90;;;;;;5047213;28;19913;-60
2023/03/05 04:33:05;;;;;;;;;;;4.10;99.90;;;;;;5047216;28;20351;-60
2023/03/05 04:35:30;;;;;;;;;;;4.10;99.90;;;;;;5049516;28;20008;-59
2023/03/05 04:37:56;;;;;;;;;;;4.10;99.90;;;;;;5049000;28;19928;-59
2023/03/05 04:40:21;;;;;;;;;;;4.10;99.90;;;;;;5052045;28;19951;-60
2023/03/05 04:42:47;;;;;;;;;;;4.10;99.90;;;;;;5052407;28;19920;-61
2023/03/05 04:45:13;;;;;;;;;;;4.10;99.90;;;;;;5046346;28;19955;-60
2023/03/05 04:47:38;;;;;;;;;;;4.10;99.90;;;;;;5037355;28;19996;-60
2023/03/05 04:50:04;;;;;;;;;;;4.10;99.90;;;;;;5043124;28;19959;-60
2023/03/05 04:52:30;;;;;;;;;;;4.10;99.90;;;;;;5048998;28;19912;-59
2023/03/05 04:54:56;;;;;;;;;;;4.10;99.90;;;;;;5045418;28;20031;-60
2023/03/05 04:57:21;;;;;;;;;;;4.00;99.90;;;;;;5044081;28;19966;-60
2023/03/05 04:59:47;;;;;;;;;;;4.10;99.90;;;;;;5051591;28;20300;-60
2023/03/05 05:02:12;;;;;;;;;;;4.00;99.90;;;;;;5048380;28;20345;-60
2023/03/05 05:04:39;;;;;;;;;;;4.00;99.90;;;;;;5037836;28;19916;-59
2023/03/05 05:07:06;;;;;;;;;;;4.00;99.90;;;;;;5048356;28;20020;-60
2023/03/05 05:09:32;;;;;;;;;;;4.00;99.90;;;;;;5048565;28;20371;-60
2023/03/05 05:11:57;;;;;;;;;;;4.00;99.90;;;;;;5048705;28;19919;-60
2023/03/05 05:14:23;;;;;;;;;;;4.00;99.90;;;;;;5052253;28;19920;-59
2023/03/05 05:16:48;;;;;;;;;;;3.90;99.90;;;;;;5051578;28;19924;-60
2023/03/05 05:19:14;;;;;;;;;;;3.90;99.90;;;;;;5050126;28;20360;-60
2023/03/05 05:21:39;;;;;;;;;;;3.90;99.90;;;;;;5056074;28;19963;-60
2023/03/05 05:24:05;;;;;;;;;;;3.90;99.90;;;;;;5044167;28;19912;-60
2023/03/05 05:26:30;;;;;;;;;;;3.90;99.90;;;;;;5050106;28;19920;-58
2023/03/05 05:28:56;;;;;;;;;;;3.90;99.90;;;;;;5049871;28;19959;-60
2023/03/05 05:31:21;;;;;;;;;;;3.90;99.90;;;;;;5038663;28;19920;-60
2023/03/05 05:33:47;;;;;;;;;;;3.90;99.90;;;;;;5049143;28;19913;-60
2023/03/05 05:36:13;;;;;;;;;;;3.90;99.90;;;;;;5049934;28;19999;-60
2023/03/05 05:38:39;;;;;;;;;;;3.90;99.90;;;;;;5049548;28;20364;-60
2023/03/05 05:41:06;;;;;;;;;;;3.90;99.90;;;;;;5049898;28;19921;-60
2023/03/05 05:43:31;;;;;;;;;;;3.90;99.90;;;;;;5050448;28;19920;-60
2023/03/05 05:46:04;;;;;;;;;;;3.90;99.90;;;;;;5044658;28;20286;-58
2023/03/05 05:48:31;;;;;;;;;;;3.90;99.90;;;;;;5051818;28;19912;-61
2023/03/05 05:50:57;;;;;;;;;;;3.90;99.90;;;;;;5049815;28;19917;-60
2023/03/05 05:53:22;;;;;;;;;;;3.90;99.90;;;;;;5048200;28;19923;-60
2023/03/05 05:55:48;;;;;;;;;;;3.80;99.90;;;;;;5046930;28;19916;-60
2023/03/05 05:58:13;;;;;;;;;;;3.80;99.90;;;;;;5047090;28;19921;-60
2023/03/05 06:00:39;;;;;;;;;;;3.80;99.90;;;;;;5048173;28;20007;-60
2023/03/05 06:03:04;;;;;;;;;;;3.80;99.90;;;;;;5048474;28;19912;-60
2023/03/05 06:05:30;;;;;;;;;;;3.80;99.90;;;;;;5048555;28;19921;-60
2023/03/05 06:07:56;;;;;;;;;;;3.80;99.90;;;;;;5043459;28;19924;-60
2023/03/05 06:10:21;;;;;;;;;;;3.80;99.90;;;;;;5045160;28;19936;-60
2023/03/05 06:12:47;;;;;;;;;;;3.80;99.90;;;;;;5050078;28;20405;-60
2023/03/05 06:15:12;;;;;;;;;;;3.80;99.90;;;;;;5047333;28;19913;-60
2023/03/05 06:17:38;;;;;;;;;;;3.80;99.90;;;;;;5045156;28;19917;-60
2023/03/05 06:20:04;;;;;;;;;;;3.80;99.90;;;;;;5048466;28;19974;-60
2023/03/05 06:22:30;;;;;;;;;;;3.80;99.90;;;;;;5050713;28;19978;-60
2023/03/05 06:24:55;;;;;;;;;;;3.80;99.90;;;;;;5046047;28;20234;-60
2023/03/05 06:27:21;;;;;;;;;;;3.80;99.90;;;;;;5047649;28;19928;-60
2023/03/05 06:29:46;;;;;;;;;;;3.80;99.90;;;;;;5048997;28;19963;-60
2023/03/05 06:32:12;;;;;;;;;;;3.80;99.90;;;;;;5044439;28;19913;-60
2023/03/05 06:34:37;;;;;;;;;;;3.80;99.90;;;;;;5042334;28;20309;-60
2023/03/05 06:37:03;;;;;;;;;;;3.80;99.90;;;;;;5031972;28;19913;-60
2023/03/05 06:39:30;;;;;;;;;;;3.80;99.90;;;;;;5043842;28;19928;-60
2023/03/05 06:41:55;;;;;;;;;;;3.80;99.90;;;;;;5043137;28;20364;-60
2023/03/05 06:44:21;;;;;;;;;;;3.80;99.90;;;;;;5047640;28;19920;-60
2023/03/05 06:46:46;;;;;;;;;;;3.80;99.90;;;;;;5041211;28;19919;-60
2023/03/05 06:49:12;;;;;;;;;;;3.90;99.90;;;;;;5045313;28;19928;-61
2023/03/05 06:51:38;;;;;;;;;;;3.80;99.90;;;;;;5049275;28;19913;-61
2023/03/05 06:54:05;;;;;;;;;;;3.90;99.90;;;;;;5035351;28;19913;-59
2023/03/05 06:56:33;;;;;;;;;;;3.80;99.90;;;;;;5045538;28;19913;-59
2023/03/05 06:58:58;;;;;;;;;;;3.80;99.90;;;;;;5048492;28;19924;-60
2023/03/05 07:01:24;;;;;;;;;;;3.80;99.90;;;;;;5046977;28;19913;-60
2023/03/05 07:03:51;;;;;;;;;;;3.80;99.90;;;;;;5047481;28;19913;-59
2023/03/05 07:06:17;;;;;;;;;;;3.80;99.90;;;;;;5050119;28;19916;-60
2023/03/05 07:08:45;;;;;;;;;;;3.80;99.90;;;;;;5050206;28;20264;-60
2023/03/05 07:11:12;;;;;;;;;;;3.80;99.90;;;;;;5042047;28;19913;-61
2023/03/05 07:13:37;;;;;;;;;;;3.80;99.90;;;;;;5050174;28;20283;-60
2023/03/05 07:16:06;;;;;;;;;;;3.80;99.90;;;;;;5038909;28;19920;-60
2023/03/05 07:18:32;;;;;;;;;;;3.80;99.90;;;;;;5045232;28;19963;-60
2023/03/05 07:21:05;;;;;;;;;;;3.80;99.90;;;;;;5040198;28;20037;-59
2023/03/05 07:23:30;;;;;;;;;;;3.80;99.90;;;;;;5049815;28;19919;-60
2023/03/05 07:25:56;;;;;;;;;;;3.80;99.90;;;;;;5048858;28;19913;-59
2023/03/05 07:28:22;;;;;;;;;;;3.80;99.90;;;;;;5049914;28;19925;-60
2023/03/05 07:30:57;;;;;;;;;;;3.80;99.90;;;;;;5047804;28;19912;-61
2023/03/05 07:33:23;;;;;;;;;;;3.80;99.90;;;;;;5049318;28;19913;-60
2023/03/05 07:35:49;;;;;;;;;;;3.80;99.90;;;;;;5040982;28;20287;-61
2023/03/05 07:38:14;;;;;;;;;;;3.90;99.90;;;;;;5047169;28;19919;-61
2023/03/05 07:40:40;;;;;;;;;;;3.90;99.90;;;;;;5043625;28;19924;-60
2023/03/05 07:43:05;;;;;;;;;;;3.90;99.90;;;;;;5048129;28;20295;-61
2023/03/05 07:45:31;;;;;;;;;;;3.90;99.90;;;;;;5049667;28;19999;-61
2023/03/05 07:47:56;;;;;;;;;;;3.90;99.90;;;;;;5049739;28;20265;-60
2023/03/05 07:50:22;;;;;;;;;;;3.90;99.90;;;;;;5048859;28;19933;-60
2023/03/05 07:52:48;;;;;;;;;;;3.90;99.90;;;;;;5039166;28;19968;-60
2023/03/05 07:55:14;;;;;;;;;;;3.90;99.90;;;;;;5038558;28;19960;-62
2023/03/05 07:57:39;;;;;;;;;;;4.00;99.90;;;;;;5054327;28;20432;-61
2023/03/05 08:00:05;;;;;;;;;;;4.00;99.90;;;;;;5048874;28;19925;-61
2023/03/05 08:02:31;;;;;;;;;;;3.90;99.90;;;;;;5053549;28;19920;-61
2023/03/05 08:04:56;;;;;;;;;;;4.00;99.90;;;;;;5042434;28;20004;-61
2023/03/05 08:07:22;;;;;;;;;;;4.00;99.90;;;;;;5053579;28;19912;-61
2023/03/05 08:09:47;;;;;;;;;;;4.00;99.90;;;;;;5063760;28;19913;-61
2023/03/05 08:12:13;;;;;;;;;;;4.00;99.90;;;;;;5040596;28;19913;-60
2023/03/05 08:14:38;;;;;;;;;;;4.10;99.90;;;;;;5052448;28;19917;-61
2023/03/05 08:17:04;;;;;;;;;;;4.10;99.90;;;;;;5051408;28;20327;-62
2023/03/05 08:19:31;;;;;;;;;;;4.10;99.90;;;;;;5066581;28;20020;-62
2023/03/05 08:21:56;;;;;;;;;;;4.20;99.90;;;;;;5051298;28;19913;-60
2023/03/05 08:24:28;;;;;;;;;;;4.20;99.90;;;;;;5051928;28;20118;-60
2023/03/05 08:26:54;;;;;;;;;;;4.20;99.90;;;;;;5051067;28;20423;-60
2023/03/05 08:29:19;;;;;;;;;;;4.30;99.90;;;;;;5051227;28;19916;-60
2023/03/05 08:31:46;;;;;;;;;;;4.30;99.90;;;;;;5042486;28;19919;-60
2023/03/05 08:34:11;;;;;;;;;;;4.30;99.90;;;;;;5046522;28;19922;-60
2023/03/05 08:36:37;;;;;;;;;;;4.40;99.90;;;;;;5052898;28;19920;-60
2023/03/05 08:39:02;;;;;;;;;;;4.40;99.90;;;;;;5050794;28;19921;-60
2023/03/05 08:41:28;;;;;;;;;;;4.40;99.90;;;;;;5051317;28;20426;-59
2023/03/05 08:43:54;;;;;;;;;;;4.50;99.90;;;;;;5050659;28;19913;-60
2023/03/05 08:46:19;;;;;;;;;;;4.50;99.90;;;;;;5047016;28;19917;-60
2023/03/05 08:48:45;;;;;;;;;;;4.60;99.90;;;;;;5055958;28;19920;-60
2023/03/05 08:51:12;;;;;;;;;;;4.70;99.90;;;;;;5050764;28;19919;-60
2023/03/05 08:53:37;;;;;;;;;;;4.60;99.90;;;;;;5067968;28;20348;-61
2023/03/05 08:56:03;;;;;;;;;;;4.70;99.90;;;;;;5045068;28;20008;-60
2023/03/05 08:58:28;;;;;;;;;;;4.70;99.90;;;;;;5051134;28;19917;-60
2023/03/05 09:00:55;;;;;;;;;;;4.80;99.90;;;;;;5045789;28;19925;-60
2023/03/05 09:03:21;;;;;;;;;;;4.80;99.90;;;;;;5045507;28;19920;-60
2023/03/05 09:05:46;;;;;;;;;;;4.90;99.90;;;;;;5047776;28;20054;-61
2023/03/05 09:08:12;;;;;;;;;;;4.90;99.90;;;;;;5038501;28;20365;-61
2023/03/05 09:10:39;;;;;;;;;;;5.00;99.90;;;;;;5043569;28;20284;-60
2023/03/05 09:13:05;;;;;;;;;;;5.00;99.90;;;;;;5042791;28;20434;-60
2023/03/05 09:15:30;;;;;;;;;;;5.00;99.90;;;;;;5037912;28;19913;-60
2023/03/05 09:17:56;;;;;;;;;;;5.10;99.90;;;;;;5036183;28;19963;-61
2023/03/05 09:20:22;;;;;;;;;;;5.10;99.90;;;;;;5038501;28;19921;-61
2023/03/05 09:22:47;;;;;;;;;;;5.20;99.90;;;;;;5039854;28;19913;-61
2023/03/05 09:25:13;;;;;;;;;;;5.20;99.90;;;;;;5039350;28;19970;-61
2023/03/05 09:27:38;;;;;;;;;;;5.20;99.90;;;;;;5045317;28;19933;-61
2023/03/05 09:30:04;;;;;;;;;;;5.20;99.90;;;;;;5035976;28;19920;-61
2023/03/05 09:32:30;;;;;;;;;;;5.20;99.90;;;;;;5039551;28;19963;-61
2023/03/05 09:34:56;;;;;;;;;;;5.30;99.90;;;;;;5040522;28;19927;-61
2023/03/05 09:37:21;;;;;;;;;;;5.20;99.90;;;;;;5039942;28;19921;-60
2023/03/05 09:39:47;;;;;;;;;;;5.30;99.90;;;;;;5042168;28;20000;-61
2023/03/05 09:42:31;;;;;;;;;;;5.30;99.90;;;;;;5035170;28;20364;-60
2023/03/05 09:45:03;;;;;;;;;;;5.40;99.90;;;;;;5040003;28;19916;-62
2023/03/05 09:47:46;;;;;;;;;;;5.40;99.90;;;;;;5037776;28;20355;-60
2023/03/05 09:50:14;;;;;;;;;;;5.40;99.90;;;;;;5045320;28;19924;-60
2023/03/05 09:52:50;;;;;;;;;;;5.40;99.90;;;;;;5041705;28;19913;-61
2023/03/05 09:55:32;;;;;;;;;;;5.60;99.90;;;;;;5039527;28;19920;-59
2023/03/05 09:58:02;;;;;;;;;;;5.60;99.90;;;;;;5045221;28;19956;-60
2023/03/05 10:00:37;;;;;;;;;;;5.60;99.90;;;;;;5043684;28;19971;-60
2023/03/05 10:03:05;;;;;;;;;;;5.70;99.90;;;;;;5038440;28;19963;-60
2023/03/05 10:05:44;;;;;;;;;;;5.80;99.90;;;;;;5045174;28;19913;-60
2023/03/05 10:08:10;;;;;;;;;;;5.90;99.90;;;;;;5043161;28;19933;-60
2023/03/05 10:10:36;;;;;;;;;;;6.00;99.90;;;;;;5041986;28;19917;-61
2023/03/05 10:13:04;;;;;;;;;;;6.00;99.90;;;;;;5045387;28;19920;-61
2023/03/05 10:15:34;;;;;;;;;;;6.10;99.90;;;;;;5045503;28;20057;-64
2023/03/05 10:18:18;;;;;;;;;;;6.30;99.90;;;;;;5047540;28;20011;-61
2023/03/05 10:20:49;;;;;;;;;;;6.40;99.90;;;;;;5049497;28;19932;-60
2023/03/05 10:23:33;;;;;;;;;;;6.40;99.90;;;;;;5047081;28;20012;-61
2023/03/05 10:26:02;;;;;;;;;;;6.40;99.90;;;;;;5047179;28;19917;-60
2023/03/05 10:28:38;;;;;;;;;;;6.50;99.90;;;;;;5045450;28;19964;-60
2023/03/05 10:31:24;;;;;;;;;;;6.60;99.90;;;;;;5047994;28;19948;-60
2023/03/05 10:34:07;;;;;;;;;;;6.50;99.90;;;;;;5046636;28;19917;-60
2023/03/05 10:36:52;;;;;;;;;;;6.50;99.90;;;;;;5062468;28;19913;-60
2023/03/05 10:39:26;;;;;;;;;;;6.50;99.90;;;;;;5046880;28;19990;-61
2023/03/05 10:42:01;;;;;;;;;;;6.60;99.90;;;;;;5049002;28;19917;-61
2023/03/05 10:44:45;;;;;;;;;;;6.80;99.90;;;;;;5039263;28;20010;-61
2023/03/05 10:47:29;;;;;;;;;;;6.90;99.90;;;;;;5043671;28;20257;-61
2023/03/05 10:49:55;;;;;;;;;;;7.00;99.90;;;;;;5040303;28;19934;-61
2023/03/05 10:52:28;;;;;;;;;;;7.00;99.90;;;;;;5039781;28;19913;-62
2023/03/05 10:54:53;;;;;;;;;;;7.10;99.90;;;;;;5045164;28;20008;-60
2023/03/05 10:57:20;;;;;;;;;;;7.20;99.90;;;;;;5044391;28;20342;-61
2023/03/05 11:00:04;;;;;;;;;;;7.20;99.90;;;;;;5049614;28;19963;-61
2023/03/05 11:02:30;;;;;;;;;;;7.30;99.90;;;;;;5041786;28;19938;-62
2023/03/05 11:04:56;;;;;;;;;;;7.30;99.90;;;;;;5047517;28;20000;-62
2023/03/05 11:07:21;;;;;;;;;;;7.30;99.90;;;;;;5043478;28;19920;-63
2023/03/05 11:09:59;;;;;;;;;;;7.20;99.90;;;;;;5049457;28;19938;-65
2023/03/05 11:12:25;;;;;;;;;;;7.20;99.90;;;;;;5030276;28;19920;-65
2023/03/05 11:15:04;;;;;;;;;;;7.20;99.90;;;;;;5038477;28;20379;-66
2023/03/05 11:17:43;;;;;;;;;;;7.20;99.90;;;;;;5047256;28;19921;-69
2023/03/05 11:20:41;;;;;;;;;;;7.10;99.90;;;;;;5047905;28;20003;-68
2023/03/05 11:23:09;;;;;;;;;;;7.20;99.90;;;;;;5014126;28;19912;-68
2023/03/05 11:25:49;;;;;;;;;;;7.30;99.90;;;;;;5056821;28;19913;-66
2023/03/05 11:28:17;;;;;;;;;;;7.30;99.90;;;;;;5063366;28;19925;-70
2023/03/05 11:30:52;;;;;;;;;;;7.20;99.90;;;;;;5047563;28;19912;-67
2023/03/05 11:33:21;;;;;;;;;;;7.20;99.90;;;;;;5051449;28;19917;-65
2023/03/05 11:35:47;;;;;;;;;;;7.10;99.90;;;;;;5044138;28;19913;-63
2023/03/05 11:38:18;;;;;;;;;;;7.20;99.90;;;;;;5047089;28;20248;-61
2023/03/05 11:40:43;;;;;;;;;;;7.30;99.90;;;;;;5052539;28;19929;-62
2023/03/05 11:43:14;;;;;;;;;;;7.40;99.90;;;;;;5046487;28;19924;-60
2023/03/05 11:45:39;;;;;;;;;;;7.40;99.90;;;;;;5053734;28;20360;-61
2023/03/05 11:48:07;;;;;;;;;;;7.60;99.90;;;;;;5047395;28;20015;-61
2023/03/05 11:50:34;;;;;;;;;;;7.60;99.90;;;;;;5048359;28;20283;-61
2023/03/05 11:53:06;;;;;;;;;;;7.60;99.90;;;;;;5045379;28;19924;-61
2023/03/05 11:55:35;;;;;;;;;;;7.60;99.90;;;;;;5049466;28;20321;-61
2023/03/05 11:58:19;;;;;;;;;;;7.70;99.90;;;;;;5050072;28;20008;-60
2023/03/05 12:00:45;;;;;;;;;;;7.70;99.90;;;;;;5052654;28;20324;-61
2023/03/05 12:03:13;;;;;;;;;;;7.70;99.90;;;;;;5047474;28;20397;-61
2023/03/05 12:05:40;;;;;;;;;;;7.80;99.90;;;;;;5052999;28;19912;-60
2023/03/05 12:08:10;;;;;;;;;;;7.80;99.90;;;;;;5047063;28;20399;-61
2023/03/05 12:10:36;;;;;;;;;;;7.80;99.90;;;;;;5045301;28;20379;-61
2023/03/05 12:13:21;;;;;;;;;;;8.00;99.90;;;;;;5039969;28;19914;-61
2023/03/05 12:15:53;;;;;;;;;;;8.00;99.90;;;;;;5048379;28;19919;-61
2023/03/05 12:18:29;;;;;;;;;;;8.00;99.90;;;;;;5035516;28;19917;-60
2023/03/05 12:21:06;;;;;;;;;;;7.90;99.90;;;;;;5052196;28;19921;-61
2023/03/05 12:23:50;;;;;;;;;;;7.80;99.90;;;;;;5040744;28;19919;-60
2023/03/05 12:26:16;;;;;;;;;;;7.90;99.90;;;;;;5042440;28;19967;-62
2023/03/05 12:28:41;;;;;;;;;;;8.00;99.90;;;;;;5047660;28;19974;-62
2023/03/05 12:31:07;;;;;;;;;;;8.20;99.90;;;;;;5050849;28;19959;-59
2023/03/05 12:33:40;;;;;;;;;;;8.10;99.90;;;;;;5047151;28;19913;-60
2023/03/05 12:36:16;;;;;;;;;;;8.10;99.90;;;;;;5051103;28;20351;-63
2023/03/05 12:38:42;;;;;;;;;;;8.30;99.90;;;;;;5052728;28;20333;-62
2023/03/05 12:41:23;;;;;;;;;;;8.70;99.90;;;;;;5049097;28;19921;-63
2023/03/05 12:44:08;;;;;;;;;;;8.70;99.90;;;;;;5047872;28;20313;-62
2023/03/05 12:46:37;;;;;;;;;;;8.50;99.90;;;;;;5048852;28;20279;-62
2023/03/05 12:49:26;;;;;;;;;;;8.20;99.90;;;;;;5042373;28;19920;-63
2023/03/05 12:51:53;;;;;;;;;;;8.30;99.90;;;;;;5042196;28;20000;-62
2023/03/05 12:54:21;;;;;;;;;;;8.40;99.90;;;;;;5041505;28;19983;-62
2023/03/05 12:56:47;;;;;;;;;;;8.30;99.90;;;;;;5044204;28;20390;-62
2023/03/05 12:59:17;;;;;;;;;;;8.40;99.90;;;;;;5049224;28;20007;-63
2023/03/05 13:01:49;;;;;;;;;;;8.50;99.90;;;;;;5046504;28;19963;-63
2023/03/05 13:04:27;;;;;;;;;;;8.40;99.90;;;;;;5047764;28;19974;-62
2023/03/05 13:07:00;;;;;;;;;;;8.30;99.90;;;;;;5047902;28;19951;-63
2023/03/05 13:09:27;;;;;;;;;;;8.10;99.90;;;;;;5051778;28;19944;-62
2023/03/05 13:11:53;;;;;;;;;;;7.80;99.90;;;;;;5045933;28;19913;-63
2023/03/05 13:14:30;;;;;;;;;;;7.70;99.90;;;;;;5049790;28;20378;-63
2023/03/05 13:16:56;;;;;;;;;;;7.40;99.90;;;;;;5051324;28;19913;-63
2023/03/05 13:19:21;;;;;;;;;;;7.60;99.90;;;;;;5048931;28;19936;-63
2023/03/05 13:22:10;;;;;;;;;;;7.70;99.90;;;;;;5050157;28;19917;-63
2023/03/05 13:24:35;;;;;;;;;;;7.80;99.90;;;;;;5049837;28;19913;-64
2023/03/05 13:27:01;;;;;;;;;;;7.80;99.90;;;;;;5049280;28;19924;-62
2023/03/05 13:29:29;;;;;;;;;;;7.50;99.90;;;;;;5048284;28;20291;-63
2023/03/05 13:31:58;;;;;;;;;;;7.40;99.90;;;;;;5051019;28;19912;-63
2023/03/05 13:34:28;;;;;;;;;;;7.40;99.90;;;;;;5043359;28;19912;-63
2023/03/05 13:36:56;;;;;;;;;;;7.50;99.90;;;;;;5052046;28;20023;-62
2023/03/05 13:39:26;;;;;;;;;;;7.20;99.90;;;;;;5045988;28;19935;-62
2023/03/05 13:42:14;;;;;;;;;;;7.10;99.90;;;;;;5051170;28;20011;-62
2023/03/05 13:44:40;;;;;;;;;;;7.00;99.90;;;;;;5042667;28;19917;-63
2023/03/05 13:47:14;;;;;;;;;;;6.80;99.90;;;;;;5051047;28;20430;-62
2023/03/05 13:49:40;;;;;;;;;;;7.00;99.90;;;;;;5041669;28;20280;-62
2023/03/05 13:52:05;;;;;;;;;;;7.00;99.90;;;;;;5049411;28;19916;-63
2023/03/05 13:54:31;;;;;;;;;;;7.00;99.90;;;;;;5050627;28;19913;-63
2023/03/05 13:56:57;;;;;;;;;;;6.90;99.90;;;;;;5045018;28;20000;-63
2023/03/05 13:59:33;;;;;;;;;;;6.90;99.90;;;;;;5051425;28;19952;-62
2023/03/05 14:02:00;;;;;;;;;;;6.90;99.90;;;;;;5048991;28;19917;-63
2023/03/05 14:04:29;;;;;;;;;;;7.00;99.90;;;;;;5051222;28;19919;-63
2023/03/05 14:07:23;;;;;;;;;;;7.20;99.90;;;;;;5041230;28;20293;-62
2023/03/05 14:09:50;;;;;;;;;;;7.40;99.90;;;;;;5049855;28;19913;-63
2023/03/05 14:12:19;;;;;;;;;;;7.40;99.90;;;;;;5046856;28;19917;-62
2023/03/05 14:14:44;;;;;;;;;;;7.40;99.90;;;;;;5047633;28;19917;-62
2023/03/05 14:17:20;;;;;;;;;;;7.50;99.90;;;;;;5048123;28;20026;-63
2023/03/05 14:19:46;;;;;;;;;;;7.70;99.90;;;;;;5050508;28;19921;-62
2023/03/05 14:22:28;;;;;;;;;;;7.50;99.90;;;;;;5048717;28;19923;-61
2023/03/05 14:24:53;;;;;;;;;;;7.50;99.90;;;;;;5047746;28;19913;-64
2023/03/05 14:27:20;;;;;;;;;;;7.80;99.90;;;;;;5046344;28;19940;-61
2023/03/05 14:29:45;;;;;;;;;;;7.50;99.90;;;;;;5049383;28;19913;-61
2023/03/05 14:32:37;;;;;;;;;;;7.60;99.90;;;;;;5048050;28;20012;-63
2023/03/05 14:35:04;;;;;;;;;;;7.60;99.90;;;;;;5041888;28;19916;-62